Time;durP1;ratioP1;P1;durP2;ratioP2;P2;SDS_P1;SDS_P2;PMS_P1;PMS_P2;Temp;Humidity;BMP_temperature;BMP_pressure;BME280_temperature;BME280_humidity;BME280_pressure;Samples;Min_cycle;Max_cycle;Signal;HPM_P1;HPM_P2
2022/04/07 00:01:28;;;;;;;8.55;7.68;;;;;;;9.95;77.21;98048.28;5093629;28;20049;-50
2022/04/07 00:03:54;;;;;;;9.70;7.95;;;;;;;9.90;77.35;98055.16;5092262;28;20024;-51
2022/04/07 00:06:20;;;;;;;8.98;8.07;;;;;;;9.84;77.80;98051.59;5092248;28;20118;-50
2022/04/07 00:08:46;;;;;;;8.35;7.55;;;;;;;9.80;77.75;98048.59;5092232;28;20110;-50
2022/04/07 00:11:12;;;;;;;8.48;7.68;;;;;;;9.79;78.26;98054.03;5093197;28;20400;-51
2022/04/07 00:13:38;;;;;;;11.20;8.55;;;;;;;9.83;78.69;98062.28;5092036;28;20012;-51
2022/04/07 00:16:04;;;;;;;10.85;7.43;;;;;;;9.88;78.69;98065.88;5093355;28;20030;-51
2022/04/07 00:18:30;;;;;;;9.00;6.75;;;;;;;9.97;78.57;98067.22;5092014;28;20020;-51
2022/04/07 00:20:56;;;;;;;8.00;7.20;;;;;;;10.09;78.21;98063.94;5093272;28;20028;-51
2022/04/07 00:23:23;;;;;;;6.97;6.18;;;;;;;10.21;78.14;98059.63;5093272;28;20021;-51
2022/04/07 00:25:49;;;;;;;9.88;7.38;;;;;;;10.34;78.00;98063.97;5091835;28;20028;-50
2022/04/07 00:28:16;;;;;;;7.57;6.22;;;;;;;10.43;77.78;98061.91;5093151;28;20077;-51
2022/04/07 00:30:43;;;;;;;7.10;6.40;;;;;;;10.44;77.25;98059.03;5091528;28;20382;-51
2022/04/07 00:33:09;;;;;;;7.55;6.75;;;;;;;10.44;77.37;98053.00;5093114;28;20024;-50
2022/04/07 00:35:37;;;;;;;7.65;6.88;;;;;;;10.41;77.33;98049.00;5092935;28;20099;-51
2022/04/07 00:38:04;;;;;;;8.07;7.10;;;;;;;10.39;77.43;98048.41;5091582;28;20493;-51
2022/04/07 00:40:30;;;;;;;7.28;6.57;;;;;;;10.36;77.16;98047.03;5091591;28;20110;-51
2022/04/07 00:42:55;;;;;;;6.97;6.28;;;;;;;10.32;76.97;98047.66;5092922;28;20032;-51
2022/04/07 00:45:24;;;;;;;8.15;7.35;;;;;;;10.23;77.40;98043.66;5092777;28;20378;-51
2022/04/07 00:47:51;;;;;;;8.95;7.97;;;;;;;10.11;77.60;98046.97;5092749;28;20478;-51
2022/04/07 00:50:19;;;;;;;10.38;8.32;;;;;;;9.99;77.97;98038.19;5092687;28;20512;-51
2022/04/07 00:52:54;;;;;;;9.70;8.52;;;;;;;9.87;78.37;98040.69;5092694;28;20058;-51
2022/04/07 00:55:20;;;;;;;8.68;7.78;;;;;;;9.80;78.24;98037.31;5092666;28;20024;-50
2022/04/07 00:57:46;;;;;;;9.23;8.32;;;;;;;9.70;78.60;98037.78;5091209;28;20036;-51
2022/04/07 01:00:14;;;;;;;10.45;8.32;;;;;;;9.63;79.06;98037.00;5092598;28;20019;-50
2022/04/07 01:02:41;;;;;;;11.10;8.20;;;;;;;9.57;78.86;98033.38;5092533;28;20053;-51
2022/04/07 01:05:09;;;;;;;10.13;7.78;;;;;;;9.54;79.17;98033.81;5091141;28;20031;-51
2022/04/07 01:07:39;;;;;;;8.88;7.97;;;;;;;9.52;79.58;98027.19;5092439;28;20028;-50
2022/04/07 01:10:09;;;;;;;8.40;7.55;;;;;;;9.54;79.50;98025.97;5092416;28;20099;-51
2022/04/07 01:12:36;;;;;;;9.80;8.30;;;;;;;9.58;79.44;98026.34;5092427;28;20066;-51
2022/04/07 01:15:05;;;;;;;7.35;6.65;;;;;;;9.63;79.24;98023.91;5090901;28;20028;-51
2022/04/07 01:17:31;;;;;;;11.00;6.80;;;;;;;9.71;79.05;98022.84;5092269;28;20570;-50
2022/04/07 01:19:57;;;;;;;8.13;7.35;;;;;;;9.76;79.11;98015.16;5092284;28;20381;-52
2022/04/07 01:22:23;;;;;;;8.93;6.65;;;;;;;9.79;78.66;98012.91;5091592;28;20020;-51
2022/04/07 01:24:50;;;;;;;7.30;6.63;;;;;;;9.85;78.68;98010.47;5092150;28;20020;-51
2022/04/07 01:27:17;;;;;;;8.50;7.72;;;;;;;9.85;78.29;98011.25;5092143;28;20020;-50
2022/04/07 01:29:44;;;;;;;8.50;7.25;;;;;;;9.86;78.34;98005.03;5090794;28;20107;-51
2022/04/07 01:32:29;;;;;;;7.93;6.78;;;;;;;9.84;78.22;98006.22;5090551;28;20418;-52
2022/04/07 01:34:55;;;;;;;8.30;7.30;;;;;;;9.90;78.63;98014.06;5092011;28;20039;-52
2022/04/07 01:37:21;;;;;;;8.07;6.97;;;;;;;9.98;78.20;98013.81;5090725;28;20024;-51
2022/04/07 01:39:50;;;;;;;7.30;6.60;;;;;;;10.04;78.11;98009.53;5091988;28;20024;-51
2022/04/07 01:42:16;;;;;;;9.07;6.80;;;;;;;10.09;77.86;98014.91;5091987;28;20054;-51
2022/04/07 01:44:49;;;;;;;7.30;6.60;;;;;;;10.13;77.87;98017.94;5091908;28;20042;-51
2022/04/07 01:47:20;;;;;;;6.93;6.22;;;;;;;10.17;77.79;98017.28;5090561;28;20028;-51
2022/04/07 01:49:51;;;;;;;9.05;6.85;;;;;;;10.17;77.49;98009.41;5091943;28;20482;-50
2022/04/07 01:52:17;;;;;;;7.20;6.53;;;;;;;10.18;77.39;98010.19;5090599;28;20028;-51
2022/04/07 01:54:43;;;;;;;8.93;6.43;;;;;;;10.18;77.52;98029.38;5090457;28;20397;-52
2022/04/07 01:57:12;;;;;;;6.95;6.25;;;;;;;10.22;77.08;98023.69;5091762;28;20024;-51
2022/04/07 01:59:38;;;;;;;6.50;5.90;;;;;;;10.22;76.88;98026.31;5091718;28;20028;-51
2022/04/07 02:02:04;;;;;;;8.38;7.20;;;;;;;10.19;76.58;98017.88;5091762;28;20393;-51
2022/04/07 02:04:30;;;;;;;8.50;6.85;;;;;;;10.18;76.59;98010.19;5091770;28;20390;-52
2022/04/07 02:06:55;;;;;;;6.80;6.20;;;;;;;10.19;76.18;98002.13;5090372;28;20028;-51
2022/04/07 02:09:21;;;;;;;6.93;6.22;;;;;;;10.19;76.01;98007.38;5091751;28;20549;-51
2022/04/07 02:11:47;;;;;;;8.45;5.85;;;;;;;10.24;75.90;98011.19;5091662;28;20031;-51
2022/04/07 02:14:13;;;;;;;6.90;6.30;;;;;;;10.25;75.37;98010.97;5091606;28;20020;-51
2022/04/07 02:16:39;;;;;;;8.93;5.90;;;;;;;10.27;75.55;98002.88;5091598;28;20115;-51
2022/04/07 02:19:05;;;;;;;7.15;6.28;;;;;;;10.32;75.43;98001.25;5091573;28;20024;-51
2022/04/07 02:21:31;;;;;;;8.13;6.55;;;;;;;10.33;75.32;98002.06;5091507;28;20107;-51
2022/04/07 02:23:56;;;;;;;6.65;5.97;;;;;;;10.34;75.12;98003.66;5090208;28;20115;-51
2022/04/07 02:26:22;;;;;;;7.88;7.10;;;;;;;10.32;75.06;98003.06;5091539;28;20431;-51
2022/04/07 02:28:48;;;;;;;8.27;6.13;;;;;;;10.29;75.16;98006.09;5090181;28;20501;-51
2022/04/07 02:31:14;;;;;;;8.63;6.78;;;;;;;10.27;75.15;98001.06;5089918;28;20406;-51
2022/04/07 02:33:39;;;;;;;7.65;6.85;;;;;;;10.27;75.20;98000.28;5092259;28;20031;-52
2022/04/07 02:36:07;;;;;;;9.52;6.57;;;;;;;10.24;75.28;98001.50;5093966;28;20394;-51
2022/04/07 02:38:35;;;;;;;6.55;5.78;;;;;;;10.24;75.04;98003.31;5093981;28;20024;-51
2022/04/07 02:41:01;;;;;;;7.75;5.45;;;;;;;10.25;74.86;98005.72;5093904;28;20501;-51
2022/04/07 02:43:28;;;;;;;6.40;5.80;;;;;;;10.25;74.39;98004.94;5093854;28;20020;-51
2022/04/07 02:45:54;;;;;;;7.97;6.10;;;;;;;10.18;74.77;97997.09;5095121;28;20028;-51
2022/04/07 02:48:20;;;;;;;6.40;5.78;;;;;;;10.20;74.61;98000.31;5095129;28;20028;-51
2022/04/07 02:50:46;;;;;;;8.38;5.43;;;;;;;10.18;74.47;97990.06;5095038;28;20027;-51
2022/04/07 02:53:14;;;;;;;7.05;6.35;;;;;;;10.18;74.66;97987.44;5094880;28;20401;-50
2022/04/07 02:55:40;;;;;;;6.75;5.45;;;;;;;10.18;74.80;97981.34;5094861;28;20020;-51
2022/04/07 02:58:07;;;;;;;6.82;5.88;;;;;;;10.22;74.58;97984.38;5094938;28;20099;-51
2022/04/07 03:00:32;;;;;;;7.35;6.55;;;;;;;10.27;74.77;97981.91;5093480;28;20031;-52
2022/04/07 03:02:58;;;;;;;8.00;5.80;;;;;;;10.30;74.54;97984.13;5094843;28;20017;-51
2022/04/07 03:05:24;;;;;;;9.60;6.40;;;;;;;10.34;74.63;97990.53;5094816;28;20036;-50
2022/04/07 03:07:50;;;;;;;7.18;6.28;;;;;;;10.41;74.32;97993.13;5093455;28;20455;-51
2022/04/07 03:10:15;;;;;;;7.45;6.60;;;;;;;10.45;74.23;97991.66;5094658;28;20022;-50
2022/04/07 03:12:42;;;;;;;7.13;6.43;;;;;;;10.46;74.11;97988.81;5093355;28;20020;-52
2022/04/07 03:15:08;;;;;;;6.63;6.00;;;;;;;10.49;73.72;97996.25;5094508;28;20031;-52
2022/04/07 03:17:34;;;;;;;7.07;6.20;;;;;;;10.52;73.79;97990.59;5094541;28;20447;-51
2022/04/07 03:20:01;;;;;;;7.15;6.43;;;;;;;10.54;73.68;97991.16;5093251;28;20031;-51
2022/04/07 03:22:26;;;;;;;7.55;5.72;;;;;;;10.53;73.36;97970.41;5094499;28;20031;-51
2022/04/07 03:24:52;;;;;;;9.00;6.05;;;;;;;10.52;73.66;97981.91;5094384;28;20408;-51
2022/04/07 03:27:18;;;;;;;8.80;6.40;;;;;;;10.50;73.61;97983.94;5093052;28;20020;-51
2022/04/07 03:29:44;;;;;;;7.28;6.35;;;;;;;10.50;73.71;97979.50;5094384;28;20490;-51
2022/04/07 03:32:10;;;;;;;7.20;6.50;;;;;;;10.53;73.82;97978.25;5094098;28;20052;-52
2022/04/07 03:34:36;;;;;;;6.40;5.80;;;;;;;10.54;73.68;97985.94;5094146;28;20073;-51
2022/04/07 03:37:04;;;;;;;7.00;6.30;;;;;;;10.52;73.66;97977.47;5094274;28;20088;-51
2022/04/07 03:39:30;;;;;;;6.30;5.70;;;;;;;10.53;73.57;97973.03;5092851;28;20051;-51
2022/04/07 03:41:56;;;;;;;6.85;6.15;;;;;;;10.53;73.49;97965.94;5094112;28;20073;-51
2022/04/07 03:44:22;;;;;;;7.35;6.05;;;;;;;10.52;73.34;97958.28;5094055;28;20110;-51
2022/04/07 03:46:48;;;;;;;6.38;5.75;;;;;;;10.54;73.08;97958.88;5093340;28;20024;-51
2022/04/07 03:49:13;;;;;;;7.80;6.38;;;;;;;10.54;73.14;97953.63;5093971;28;20024;-51
2022/04/07 03:51:39;;;;;;;8.80;5.25;;;;;;;10.56;73.05;97939.28;5092593;28;20035;-51
2022/04/07 03:54:05;;;;;;;4.38;3.97;;;;;;;10.64;72.32;97946.03;5093758;28;20028;-52
2022/04/07 03:56:31;;;;;;;8.07;3.75;;;;;;;10.73;71.59;97934.25;5092432;28;20036;-51
2022/04/07 03:58:58;;;;;;;3.50;3.13;;;;;;;10.81;71.08;97941.03;5092492;28;20490;-51
2022/04/07 04:01:26;;;;;;;3.97;2.95;;;;;;;10.89;70.40;97940.72;5092627;28;20414;-51
2022/04/07 04:03:51;;;;;;;3.42;2.85;;;;;;;10.93;70.02;97928.75;5093637;28;20019;-52
2022/04/07 04:06:17;;;;;;;5.90;2.38;;;;;;;10.97;69.17;97931.75;5092291;28;20405;-51
2022/04/07 04:08:43;;;;;;;6.55;3.00;;;;;;;11.02;69.34;97939.75;5093660;28;20058;-52
2022/04/07 04:11:09;;;;;;;2.97;2.10;;;;;;;11.08;68.65;97945.94;5092263;28;20053;-51
2022/04/07 04:13:34;;;;;;;2.40;2.20;;;;;;;11.08;68.02;97930.97;5093537;28;20016;-51
2022/04/07 04:16:01;;;;;;;2.47;2.10;;;;;;;11.08;67.76;97930.19;5093351;28;20024;-52
2022/04/07 04:18:27;;;;;;;3.50;2.22;;;;;;;11.10;67.61;97936.00;5092057;28;20027;-51
2022/04/07 04:20:53;;;;;;;2.30;1.80;;;;;;;11.11;67.59;97940.25;5093351;28;20016;-50
2022/04/07 04:23:18;;;;;;;4.68;2.03;;;;;;;11.12;67.20;97939.22;5093350;28;20027;-51
2022/04/07 04:25:46;;;;;;;4.18;1.90;;;;;;;11.13;67.00;97938.22;5091901;28;20027;-51
2022/04/07 04:28:12;;;;;;;10.00;2.70;;;;;;;11.14;66.96;97932.72;5093156;28;20023;-51
2022/04/07 04:30:38;;;;;;;8.77;1.90;;;;;;;11.15;66.64;97928.28;5091557;28;20040;-51
2022/04/07 04:33:04;;;;;;;4.13;1.52;;;;;;;11.18;66.18;97930.44;5093172;28;20035;-51
2022/04/07 04:35:29;;;;;;;3.50;1.45;;;;;;;11.20;65.83;97931.03;5091601;28;20030;-50
2022/04/07 04:37:55;;;;;;;9.48;1.80;;;;;;;11.22;65.38;97922.94;5093040;28;20024;-50
2022/04/07 04:40:21;;;;;;;1.73;1.20;;;;;;;11.24;64.68;97940.06;5092923;28;20051;-50
2022/04/07 04:42:47;;;;;;;4.03;0.95;;;;;;;11.28;64.08;97937.81;5092961;28;20043;-51
2022/04/07 04:45:12;;;;;;;2.78;1.00;;;;;;;11.27;64.40;97923.88;5092878;28;20545;-51
2022/04/07 04:47:40;;;;;;;4.40;1.10;;;;;;;11.28;63.98;97927.28;5091511;28;20490;-52
2022/04/07 04:50:07;;;;;;;1.60;1.00;;;;;;;11.30;63.05;97926.03;5092776;28;20401;-51
2022/04/07 04:52:33;;;;;;;8.10;0.80;;;;;;;11.32;62.85;97934.50;5091415;28;20024;-51
2022/04/07 04:54:59;;;;;;;1.17;0.85;;;;;;;11.33;62.70;97935.31;5092915;28;20024;-51
2022/04/07 04:57:25;;;;;;;1.23;0.80;;;;;;;11.36;62.28;97935.66;5090371;28;20515;-50
2022/04/07 04:59:50;;;;;;;1.75;1.13;;;;;;;11.37;62.18;97942.53;5074441;28;20035;-51
2022/04/07 05:02:16;;;;;;;2.92;1.20;;;;;;;11.36;62.28;97946.16;5092550;28;20099;-50
2022/04/07 05:04:42;;;;;;;4.95;0.95;;;;;;;11.35;62.09;97944.56;5092568;28;20099;-51
2022/04/07 05:07:07;;;;;;;4.43;0.95;;;;;;;11.36;62.09;97950.63;5092491;28;20028;-51
2022/04/07 05:09:34;;;;;;;0.85;0.55;;;;;;;11.35;61.89;97949.81;5092474;28;20036;-51
2022/04/07 05:12:00;;;;;;;1.58;0.95;;;;;;;11.37;61.59;97960.13;5092408;28;20145;-51
2022/04/07 05:14:26;;;;;;;1.40;0.82;;;;;;;11.39;61.71;97960.69;5092276;28;20505;-51
2022/04/07 05:16:53;;;;;;;1.35;0.70;;;;;;;11.38;61.63;97962.50;5092327;28;20049;-51
2022/04/07 05:19:19;;;;;;;1.00;0.90;;;;;;;11.40;61.54;97959.66;5092331;28;20016;-51
2022/04/07 05:21:49;;;;;;;1.75;0.85;;;;;;;11.40;61.48;97944.69;5092258;28;20401;-51
2022/04/07 05:24:17;;;;;;;1.08;0.98;;;;;;;11.42;61.53;97948.94;5092195;28;20031;-50
2022/04/07 05:26:44;;;;;;;1.88;0.90;;;;;;;11.44;61.44;97950.31;5092146;28;20027;-51
2022/04/07 05:29:10;;;;;;;1.08;0.80;;;;;;;11.44;61.33;97945.03;5092192;28;20013;-50
2022/04/07 05:31:35;;;;;;;0.77;0.70;;;;;;;11.46;61.11;97955.34;5090537;28;20406;-51
2022/04/07 05:34:01;;;;;;;1.38;0.88;;;;;;;11.44;60.98;97947.69;5090705;28;20051;-51
2022/04/07 05:36:27;;;;;;;1.80;1.27;;;;;;;11.45;61.06;97948.47;5092023;28;20396;-52
2022/04/07 05:38:53;;;;;;;1.67;0.90;;;;;;;11.46;61.12;97937.75;5092059;28;20028;-51
2022/04/07 05:41:18;;;;;;;4.47;0.77;;;;;;;11.48;60.97;97934.91;5091930;28;20039;-51
2022/04/07 05:43:44;;;;;;;1.00;0.68;;;;;;;11.51;60.86;97932.63;5091975;28;20024;-51
2022/04/07 05:46:10;;;;;;;1.77;1.05;;;;;;;11.52;60.74;97941.31;5091874;28;20111;-51
2022/04/07 05:48:36;;;;;;;1.95;0.80;;;;;;;11.54;60.44;97939.25;5091962;28;20020;-51
2022/04/07 05:51:01;;;;;;;1.67;0.90;;;;;;;11.57;60.35;97947.50;5092153;28;20070;-51
2022/04/07 05:53:27;;;;;;;1.95;0.90;;;;;;;11.59;60.22;97931.50;5091857;28;20026;-51
2022/04/07 05:55:53;;;;;;;1.40;0.98;;;;;;;11.59;60.23;97942.81;5091809;28;20028;-51
2022/04/07 05:58:19;;;;;;;1.42;1.00;;;;;;;11.63;60.12;97927.41;5092085;28;20016;-51
2022/04/07 06:00:45;;;;;;;1.83;1.00;;;;;;;11.67;59.65;97941.69;5091736;28;20040;-52
2022/04/07 06:03:12;;;;;;;3.50;0.88;;;;;;;11.71;59.76;97950.72;5091770;28;20024;-51
2022/04/07 06:05:37;;;;;;;2.55;0.95;;;;;;;11.73;59.36;97938.16;5091757;28;20033;-51
2022/04/07 06:08:04;;;;;;;1.05;0.80;;;;;;;11.77;59.23;97939.31;5091748;28;20026;-50
2022/04/07 06:10:30;;;;;;;0.80;0.63;;;;;;;11.84;58.68;97949.72;5094425;28;20024;-51
2022/04/07 06:12:56;;;;;;;1.73;0.70;;;;;;;11.91;58.13;97949.63;5094501;28;20078;-51
2022/04/07 06:15:23;;;;;;;2.33;0.60;;;;;;;11.97;58.13;97953.97;5095647;28;20432;-51
2022/04/07 06:17:50;;;;;;;0.75;0.60;;;;;;;11.99;57.86;97951.94;5095727;28;20034;-51
2022/04/07 06:20:16;;;;;;;0.95;0.60;;;;;;;12.04;57.71;97946.78;5095678;28;20027;-51
2022/04/07 06:22:43;;;;;;;1.67;1.08;;;;;;;12.07;58.02;97958.69;5094321;28;20393;-51
2022/04/07 06:25:10;;;;;;;2.63;0.80;;;;;;;12.10;57.95;97943.25;5095549;28;20024;-51
2022/04/07 06:27:44;;;;;;;3.80;0.68;;;;;;;12.11;57.66;97944.88;5095532;28;20498;-51
2022/04/07 06:30:12;;;;;;;0.98;0.40;;;;;;;12.12;57.97;97964.06;5095219;28;20024;-50
2022/04/07 06:32:39;;;;;;;1.38;0.70;;;;;;;12.12;57.46;97964.88;5095519;28;20505;-50
2022/04/07 06:35:06;;;;;;;1.63;0.65;;;;;;;12.11;57.90;97947.50;5095232;28;20020;-50
2022/04/07 06:37:32;;;;;;;1.20;0.80;;;;;;;12.13;58.04;97949.88;5095374;28;20020;-50
2022/04/07 06:40:00;;;;;;;3.53;0.90;;;;;;;12.17;57.85;97943.13;5095329;28;20028;-50
2022/04/07 06:42:26;;;;;;;1.00;0.90;;;;;;;12.20;57.88;97953.22;5095273;28;20031;-51
2022/04/07 06:44:54;;;;;;;3.25;1.10;;;;;;;12.25;57.33;97942.00;5095202;28;20099;-51
2022/04/07 06:47:22;;;;;;;2.13;1.00;;;;;;;12.30;57.41;97937.66;5095164;28;20024;-51
2022/04/07 06:49:51;;;;;;;1.98;0.93;;;;;;;12.39;57.02;97935.47;5095170;28;20393;-51
2022/04/07 06:52:18;;;;;;;2.00;0.70;;;;;;;12.41;57.07;97943.91;5095074;28;20043;-51
2022/04/07 06:54:44;;;;;;;1.67;0.65;;;;;;;12.37;57.02;97938.34;5093669;28;20107;-51
2022/04/07 06:57:10;;;;;;;1.70;0.80;;;;;;;12.32;56.98;97927.69;5093632;28;20115;-51
2022/04/07 06:59:35;;;;;;;0.80;0.73;;;;;;;12.28;57.28;97923.13;5093563;28;20052;-51
2022/04/07 07:02:01;;;;;;;1.15;0.70;;;;;;;12.26;56.91;97919.94;5094877;28;20080;-51
2022/04/07 07:04:27;;;;;;;2.80;0.90;;;;;;;12.27;57.18;97919.69;5093535;28;20032;-50
2022/04/07 07:06:53;;;;;;;2.00;0.80;;;;;;;12.28;57.26;97915.25;5093753;28;20070;-51
2022/04/07 07:09:19;;;;;;;4.35;1.00;;;;;;;12.26;56.84;97902.31;5094760;28;20016;-51
2022/04/07 07:11:44;;;;;;;1.70;0.88;;;;;;;12.22;57.63;97895.91;5094666;28;20024;-51
2022/04/07 07:14:10;;;;;;;2.67;0.80;;;;;;;12.16;58.28;97905.50;5094561;28;20016;-51
2022/04/07 07:16:35;;;;;;;1.67;1.00;;;;;;;12.01;59.50;97897.28;5094661;28;20020;-50
2022/04/07 07:19:01;;;;;;;1.25;0.90;;;;;;;11.84;59.87;97905.03;5094536;28;20020;-52
2022/04/07 07:21:27;;;;;;;1.65;1.05;;;;;;;11.70;59.90;97912.31;5093487;28;20064;-52
2022/04/07 07:23:52;;;;;;;3.50;0.98;;;;;;;11.64;60.71;97926.34;5094486;28;20016;-51
2022/04/07 07:26:18;;;;;;;4.85;1.27;;;;;;;11.59;61.15;97915.75;5093047;28;20036;-51
2022/04/07 07:28:44;;;;;;;3.53;1.13;;;;;;;11.55;61.69;97910.13;5094400;28;20017;-51
2022/04/07 07:31:09;;;;;;;1.75;0.90;;;;;;;11.49;61.82;97920.72;5092741;28;20093;-51
2022/04/07 07:33:35;;;;;;;4.95;1.05;;;;;;;11.38;62.29;97909.97;5094315;28;20111;-51
2022/04/07 07:36:01;;;;;;;2.22;1.00;;;;;;;11.30;62.69;97912.91;5092811;28;20028;-51
2022/04/07 07:38:27;;;;;;;3.00;1.05;;;;;;;11.23;62.95;97906.97;5094724;28;20115;-50
2022/04/07 07:40:53;;;;;;;4.45;2.40;;;;;;;11.12;63.42;97918.22;5092801;28;20016;-50
2022/04/07 07:43:20;;;;;;;2.97;1.80;;;;;;;11.00;63.76;97916.34;5094111;28;20026;-51
2022/04/07 07:45:46;;;;;;;3.88;2.95;;;;;;;10.85;65.35;97910.69;5094077;28;20081;-50
2022/04/07 07:48:12;;;;;;;4.72;2.30;;;;;;;10.74;65.92;97919.28;5094000;28;20435;-51
2022/04/07 07:50:41;;;;;;;6.30;1.90;;;;;;;10.63;66.48;97928.72;5093941;28;20099;-50
2022/04/07 07:53:08;;;;;;;2.33;1.27;;;;;;;10.58;66.74;97921.50;5093885;28;20032;-51
2022/04/07 07:55:35;;;;;;;4.85;1.10;;;;;;;10.56;66.95;97918.28;5093810;28;20061;-51
2022/04/07 07:58:01;;;;;;;2.45;0.90;;;;;;;10.60;66.74;97921.25;5093785;28;20464;-51
2022/04/07 08:00:27;;;;;;;2.53;0.85;;;;;;;10.63;66.94;97933.16;5093734;28;20020;-51
2022/04/07 08:02:53;;;;;;;2.10;0.95;;;;;;;10.67;67.06;97923.81;5092387;28;20036;-51
2022/04/07 08:05:18;;;;;;;5.30;1.20;;;;;;;10.75;66.87;97918.28;5093643;28;20113;-51
2022/04/07 08:07:45;;;;;;;1.13;0.73;;;;;;;10.81;66.81;97920.03;5092337;28;20028;-51
2022/04/07 08:10:11;;;;;;;1.17;0.65;;;;;;;10.92;66.14;97931.59;5093538;28;20016;-51
2022/04/07 08:12:38;;;;;;;1.33;0.65;;;;;;;11.06;65.42;97932.22;5093510;28;20132;-51
2022/04/07 08:15:05;;;;;;;3.45;0.95;;;;;;;11.20;65.32;97928.41;5093383;28;20553;-51
2022/04/07 08:17:31;;;;;;;2.15;0.88;;;;;;;11.31;64.57;97929.50;5093415;28;20089;-51
2022/04/07 08:19:57;;;;;;;6.65;1.15;;;;;;;11.46;62.59;97929.84;5093413;28;20381;-51
2022/04/07 08:22:22;;;;;;;1.98;0.80;;;;;;;11.63;62.99;97921.31;5093293;28;20032;-51
2022/04/07 08:24:48;;;;;;;1.90;0.70;;;;;;;11.86;62.56;97917.94;5093306;28;20024;-51
2022/04/07 08:27:14;;;;;;;2.75;0.65;;;;;;;12.09;61.98;97930.31;5093408;28;20028;-51
2022/04/07 08:29:40;;;;;;;3.03;0.40;;;;;;;12.29;60.16;97917.63;5091873;28;20031;-52
2022/04/07 08:32:06;;;;;;;2.25;0.80;;;;;;;12.48;59.30;97917.50;5092780;28;20481;-52
2022/04/07 08:34:32;;;;;;;5.25;0.90;;;;;;;12.57;60.25;97916.91;5093051;28;20024;-51
2022/04/07 08:36:58;;;;;;;0.63;0.47;;;;;;;12.61;59.11;97917.25;5093040;28;20371;-51
2022/04/07 08:39:24;;;;;;;0.85;0.70;;;;;;;12.63;59.29;97927.53;5093076;28;20106;-51
2022/04/07 08:41:53;;;;;;;1.27;0.40;;;;;;;12.63;58.57;97924.91;5092948;28;20489;-51
2022/04/07 08:44:19;;;;;;;2.80;0.75;;;;;;;12.63;59.32;97924.91;5092986;28;20393;-51
2022/04/07 08:46:56;;;;;;;4.07;0.60;;;;;;;12.65;59.59;97922.84;5091637;28;20131;-51
2022/04/07 08:49:23;;;;;;;0.80;0.45;;;;;;;12.67;58.74;97933.94;5092876;28;20036;-51
2022/04/07 08:51:52;;;;;;;0.98;0.60;;;;;;;12.63;59.45;97923.06;5092794;28;20505;-51
2022/04/07 08:54:18;;;;;;;0.88;0.50;;;;;;;12.58;59.58;97929.03;5091452;28;20393;-50
2022/04/07 08:56:45;;;;;;;0.88;0.52;;;;;;;12.42;61.20;97931.59;5091340;28;20103;-51
2022/04/07 08:59:11;;;;;;;0.65;0.57;;;;;;;12.24;60.74;97930.69;5091373;28;20045;-51
2022/04/07 09:01:37;;;;;;;1.10;0.85;;;;;;;12.10;61.96;97932.72;5091385;28;20035;-51
2022/04/07 09:04:03;;;;;;;2.88;0.85;;;;;;;11.98;63.00;97937.97;5092656;28;20020;-50
2022/04/07 09:06:33;;;;;;;2.17;1.40;;;;;;;11.86;63.97;97934.50;5092540;28;20027;-51
2022/04/07 09:09:14;;;;;;;2.53;0.80;;;;;;;11.77;64.14;97920.91;5092611;28;20049;-51
2022/04/07 09:11:40;;;;;;;1.00;0.80;;;;;;;11.64;64.44;97934.25;5092510;28;20060;-51
2022/04/07 09:14:10;;;;;;;2.08;1.05;;;;;;;11.53;65.06;97929.75;5092328;28;20370;-51
2022/04/07 09:16:38;;;;;;;1.50;0.80;;;;;;;11.46;63.69;97936.94;5092389;28;20153;-51
2022/04/07 09:19:04;;;;;;;0.60;0.43;;;;;;;11.38;63.97;97936.22;5092339;28;20035;-51
2022/04/07 09:21:36;;;;;;;3.17;0.88;;;;;;;11.34;64.50;97963.19;5092288;28;20027;-51
2022/04/07 09:24:07;;;;;;;1.92;0.60;;;;;;;11.31;63.90;97938.16;5090974;28;20039;-52
2022/04/07 09:26:39;;;;;;;5.00;1.00;;;;;;;11.33;64.28;97948.44;5092204;28;20024;-50
2022/04/07 09:29:14;;;;;;;0.90;0.50;;;;;;;11.36;63.42;97948.00;5092428;28;20024;-51
2022/04/07 09:31:50;;;;;;;1.77;1.42;;;;;;;11.36;64.81;97954.03;5091993;28;20390;-51
2022/04/07 09:34:28;;;;;;;1.25;0.80;;;;;;;11.31;65.89;97950.50;5092093;28;20032;-50
2022/04/07 09:37:07;;;;;;;1.52;0.77;;;;;;;11.11;67.18;97954.19;5092092;28;20548;-50
2022/04/07 09:39:44;;;;;;;2.35;0.95;;;;;;;10.93;67.17;97960.25;5090754;28;20061;-51
2022/04/07 09:42:24;;;;;;;1.45;0.90;;;;;;;10.82;67.97;97952.31;5092063;28;20024;-51
2022/04/07 09:44:52;;;;;;;2.47;0.80;;;;;;;10.82;67.80;97953.09;5091437;28;20027;-50
2022/04/07 09:47:19;;;;;;;1.35;0.80;;;;;;;10.86;68.04;97941.16;5091886;28;20020;-51
2022/04/07 09:49:47;;;;;;;2.88;0.82;;;;;;;10.90;67.42;97936.25;5091930;28;20536;-51
2022/04/07 09:52:14;;;;;;;1.73;1.08;;;;;;;10.95;67.52;97954.78;5090516;28;20034;-52
2022/04/07 09:54:41;;;;;;;0.88;0.80;;;;;;;10.98;67.57;97952.50;5091814;28;20027;-51
2022/04/07 09:57:09;;;;;;;1.02;0.70;;;;;;;11.03;67.09;97954.50;5091784;28;20099;-52
2022/04/07 09:59:39;;;;;;;1.30;0.80;;;;;;;11.11;67.56;97953.38;5091827;28;20036;-51
2022/04/07 10:02:06;;;;;;;1.25;0.75;;;;;;;11.16;67.20;97945.63;5091741;28;20631;-51
2022/04/07 10:04:34;;;;;;;0.80;0.80;;;;;;;11.28;66.41;97935.19;5091775;28;20091;-52
2022/04/07 10:07:04;;;;;;;3.50;0.85;;;;;;;11.39;65.97;97944.94;5091758;28;20012;-52
2022/04/07 10:09:31;;;;;;;2.33;0.85;;;;;;;11.48;64.93;97935.69;5091761;28;20031;-52
2022/04/07 10:11:59;;;;;;;1.95;1.27;;;;;;;11.49;65.87;97947.81;5090333;28;20031;-52
2022/04/07 10:14:28;;;;;;;1.45;0.88;;;;;;;11.51;65.16;97943.13;5090343;28;20145;-51
2022/04/07 10:16:53;;;;;;;0.88;0.80;;;;;;;11.59;64.79;97942.03;5091643;28;20016;-51
2022/04/07 10:19:51;;;;;;;1.10;0.82;;;;;;;11.75;63.51;97937.91;5091657;28;20032;-51
2022/04/07 10:22:20;;;;;;;1.10;0.68;;;;;;;11.93;62.84;97934.44;5090332;28;20030;-51
2022/04/07 10:24:54;;;;;;;0.55;0.55;;;;;;;12.07;62.75;97933.19;5090239;28;20028;-51
2022/04/07 10:27:24;;;;;;;1.30;0.90;;;;;;;12.20;62.28;97921.66;5091670;28;20107;-51
2022/04/07 10:30:03;;;;;;;1.83;0.70;;;;;;;12.27;62.97;97924.94;5090224;28;20109;-51
2022/04/07 10:32:57;;;;;;;1.15;0.80;;;;;;;12.15;62.65;97911.00;5091648;28;20028;-51
2022/04/07 10:35:34;;;;;;;1.77;0.70;;;;;;;12.07;63.03;97917.41;5089461;28;20032;-51
2022/04/07 10:38:01;;;;;;;1.13;0.60;;;;;;;12.07;61.78;97927.13;5091459;28;20024;-50
2022/04/07 10:40:34;;;;;;;1.27;0.50;;;;;;;12.08;62.32;97916.38;5090173;28;20028;-50
2022/04/07 10:43:07;;;;;;;3.13;0.75;;;;;;;12.16;62.56;97910.78;5091440;28;20520;-51
2022/04/07 10:45:37;;;;;;;0.98;0.75;;;;;;;12.23;61.51;97909.84;5091406;28;20020;-50
2022/04/07 10:48:24;;;;;;;1.13;0.60;;;;;;;12.33;61.59;97912.69;5091435;28;20020;-50
2022/04/07 10:50:58;;;;;;;2.25;0.93;;;;;;;12.41;61.06;97927.34;5091340;28;20016;-50
2022/04/07 10:53:35;;;;;;;2.90;0.80;;;;;;;12.50;60.92;97910.97;5091413;28;20024;-50
2022/04/07 10:56:31;;;;;;;0.50;0.47;;;;;;;12.58;60.19;97912.44;5092794;28;20032;-51
2022/04/07 10:59:11;;;;;;;1.60;0.60;;;;;;;12.65;59.92;97904.41;5095065;28;20024;-50
2022/04/07 11:01:37;;;;;;;0.50;0.50;;;;;;;12.67;59.80;97904.97;5094978;28;20107;-50
2022/04/07 11:04:18;;;;;;;0.47;0.47;;;;;;;12.70;58.79;97915.06;5095177;28;20107;-50
2022/04/07 11:07:05;;;;;;;0.55;0.40;;;;;;;12.71;58.86;97916.66;5094805;28;20020;-50
2022/04/07 11:09:57;;;;;;;1.58;0.52;;;;;;;12.72;58.54;97898.00;5094823;28;20015;-50
2022/04/07 11:12:25;;;;;;;0.70;0.63;;;;;;;12.77;58.14;97898.06;5094763;28;20016;-50
2022/04/07 11:14:54;;;;;;;0.57;0.57;;;;;;;12.82;58.34;97894.75;5094566;28;20031;-50
2022/04/07 11:17:41;;;;;;;0.93;0.50;;;;;;;12.89;58.32;97887.50;5094646;28;20031;-51
2022/04/07 11:20:15;;;;;;;1.70;0.70;;;;;;;12.97;57.66;97891.59;5093233;28;20145;-50
2022/04/07 11:22:52;;;;;;;1.65;0.60;;;;;;;12.98;57.26;97886.09;5094603;28;20020;-51
2022/04/07 11:25:22;;;;;;;1.38;0.70;;;;;;;12.97;57.56;97888.97;5094502;28;20047;-50
2022/04/07 11:28:14;;;;;;;0.60;0.47;;;;;;;12.98;57.15;97901.13;5093091;28;20073;-51
2022/04/07 11:30:41;;;;;;;1.83;0.77;;;;;;;12.98;56.98;97891.38;5094147;28;20052;-51
2022/04/07 11:35:59;;;;;;;1.85;0.52;;;;;;;13.15;57.28;97880.06;5094178;28;20040;-50
2022/04/07 11:38:46;;;;;;;1.33;0.73;;;;;;;13.36;57.27;97879.44;5092895;28;20439;-50
2022/04/07 11:41:16;;;;;;;2.28;0.70;;;;;;;13.60;56.08;97874.00;5094167;28;20030;-51